Time;durP1;ratioP1;P1;durP2;ratioP2;P2;SDS_P1;SDS_P2;PMS_P1;PMS_P2;Temp;Humidity;BMP_temperature;BMP_pressure;BME280_temperature;BME280_humidity;BME280_pressure;Samples;Min_cycle;Max_cycle;Signal;HPM_P1;HPM_P2
2023/08/18 00:01:21;;;;;;;8.63;6.75;;;;;;;15.65;99.45;101642.91;5011236;28;20122;-79
2023/08/18 00:03:46;;;;;;;7.63;6.93;;;;;;;15.66;99.52;101642.69;4994410;28;20026;-78
2023/08/18 00:06:12;;;;;;;6.85;6.15;;;;;;;15.60;100.00;101644.38;5011631;28;20087;-77
2023/08/18 00:08:38;;;;;;;6.85;6.10;;;;;;;15.64;100.00;101642.06;5013422;28;20030;-78
2023/08/18 00:11:03;;;;;;;8.75;6.95;;;;;;;15.61;99.83;101642.50;5012361;28;20334;-78
2023/08/18 00:13:28;;;;;;;7.47;6.57;;;;;;;15.62;99.82;101641.41;5011023;28;20037;-78
2023/08/18 00:15:54;;;;;;;7.47;6.65;;;;;;;15.63;99.70;101647.69;5013432;28;20022;-78
2023/08/18 00:18:19;;;;;;;7.80;6.90;;;;;;;15.60;99.85;101638.94;5012530;28;20044;-78
2023/08/18 00:20:45;;;;;;;7.88;6.75;;;;;;;15.57;100.00;101643.97;5011545;28;20033;-77
2023/08/18 00:23:11;;;;;;;8.88;7.38;;;;;;;15.55;100.00;101638.72;5010484;28;20386;-78
2023/08/18 00:25:36;;;;;;;8.35;7.13;;;;;;;15.61;100.00;101643.31;5009246;28;20099;-78
2023/08/18 00:28:02;;;;;;;8.25;7.28;;;;;;;15.59;100.00;101628.31;5012812;28;20021;-78
2023/08/18 00:30:28;;;;;;;8.60;7.05;;;;;;;15.53;100.00;101626.41;5008880;28;20096;-78
2023/08/18 00:32:53;;;;;;;8.30;7.32;;;;;;;15.50;100.00;101635.84;5010721;28;20030;-78
2023/08/18 00:35:18;;;;;;;9.05;7.38;;;;;;;15.52;100.00;101631.03;5012233;28;20459;-78
2023/08/18 00:37:44;;;;;;;9.10;7.20;;;;;;;15.53;100.00;101642.72;5014266;28;20048;-78
2023/08/18 00:40:12;;;;;;;9.75;7.65;;;;;;;15.54;100.00;101637.06;5012789;28;20026;-78
2023/08/18 00:42:38;;;;;;;10.43;7.57;;;;;;;15.56;100.00;101640.41;5012625;28;20057;-78
2023/08/18 00:45:04;;;;;;;9.52;8.10;;;;;;;15.53;100.00;101640.81;5013916;28;20354;-78
2023/08/18 00:47:29;;;;;;;8.00;7.20;;;;;;;15.53;100.00;101640.81;5013154;28;20072;-78
2023/08/18 00:49:57;;;;;;;8.90;7.30;;;;;;;15.55;100.00;101643.34;5013127;28;20034;-78
2023/08/18 00:52:25;;;;;;;9.82;8.02;;;;;;;15.53;100.00;101640.81;5011039;28;20030;-78
2023/08/18 00:54:51;;;;;;;9.32;7.90;;;;;;;15.54;100.00;101645.19;4995424;28;20018;-78
2023/08/18 00:57:16;;;;;;;9.15;8.15;;;;;;;15.52;100.00;101647.31;4978984;28;20648;-78
2023/08/18 00:59:42;;;;;;;9.48;8.18;;;;;;;15.53;100.00;101646.25;4996308;28;20505;-78
2023/08/18 01:02:07;;;;;;;10.10;8.10;;;;;;;15.55;100.00;101640.63;4980913;28;20037;-78
2023/08/18 01:04:33;;;;;;;10.07;8.23;;;;;;;15.53;100.00;101635.38;5009025;28;20022;-77
2023/08/18 01:06:59;;;;;;;9.25;7.88;;;;;;;15.51;100.00;101639.38;4991242;28;20044;-78
2023/08/18 01:09:24;;;;;;;9.23;8.23;;;;;;;15.48;100.00;101646.06;4996527;28;20086;-77
2023/08/18 01:12:04;;;;;;;8.60;7.75;;;;;;;15.48;100.00;101639.78;5012643;28;20129;-77
2023/08/18 01:14:35;;;;;;;9.68;8.63;;;;;;;15.45;100.00;101641.03;5008073;28;20481;-78
2023/08/18 01:17:06;;;;;;;9.52;8.20;;;;;;;15.43;100.00;101638.56;4990723;28;20034;-78
2023/08/18 01:19:32;;;;;;;11.55;9.18;;;;;;;15.41;100.00;101643.34;4996534;28;20055;-78
2023/08/18 01:21:58;;;;;;;10.40;8.80;;;;;;;15.45;100.00;101643.75;4994271;28;20478;-78
2023/08/18 01:24:24;;;;;;;9.60;8.02;;;;;;;15.51;100.00;101645.66;4993600;28;20440;-78
2023/08/18 01:26:51;;;;;;;10.95;8.68;;;;;;;15.49;100.00;101634.16;5010047;28;20429;-78
2023/08/18 01:29:17;;;;;;;9.85;8.75;;;;;;;15.49;100.00;101625.16;5010338;28;20034;-78
2023/08/18 01:31:42;;;;;;;10.63;9.02;;;;;;;15.43;100.00;101626.84;4995284;28;20044;-78
2023/08/18 01:34:14;;;;;;;10.50;9.40;;;;;;;15.45;100.00;101630.19;4992750;28;20149;-78
2023/08/18 01:36:41;;;;;;;10.32;8.52;;;;;;;15.46;100.00;101619.13;5011811;28;20034;-78
2023/08/18 01:39:08;;;;;;;11.25;9.25;;;;;;;15.50;100.00;101627.69;4994303;28;20925;-78
2023/08/18 01:41:33;;;;;;;11.35;10.00;;;;;;;15.43;100.00;101610.56;5009752;28;20070;-78
2023/08/18 01:44:02;;;;;;;9.38;8.48;;;;;;;15.49;100.00;101609.75;4993456;28;20029;-78
2023/08/18 01:46:27;;;;;;;11.05;9.85;;;;;;;15.47;100.00;101606.41;5012699;28;20453;-77
2023/08/18 01:48:53;;;;;;;10.38;9.27;;;;;;;15.51;100.00;101602.22;5010333;28;20054;-78
2023/08/18 01:51:18;;;;;;;11.38;9.98;;;;;;;15.49;100.00;101595.31;5010787;28;20034;-78
2023/08/18 01:53:44;;;;;;;11.95;9.65;;;;;;;15.45;100.00;101598.44;5013561;28;20026;-78
2023/08/18 01:56:09;;;;;;;11.07;9.85;;;;;;;15.48;100.00;101604.50;5009821;28;20026;-78
2023/08/18 01:58:35;;;;;;;11.20;9.90;;;;;;;15.46;100.00;101593.88;5009830;28;20481;-78
2023/08/18 02:01:00;;;;;;;10.77;9.65;;;;;;;15.44;100.00;101595.97;5012018;28;20018;-78
2023/08/18 02:03:28;;;;;;;11.50;10.18;;;;;;;15.41;100.00;101596.38;5012373;28;20034;-78
2023/08/18 02:06:03;;;;;;;12.13;10.55;;;;;;;15.39;100.00;101601.19;5011925;28;20038;-78
2023/08/18 02:08:32;;;;;;;12.30;10.32;;;;;;;15.40;100.00;101592.00;5011858;28;20034;-78
2023/08/18 02:11:02;;;;;;;13.30;10.55;;;;;;;15.40;100.00;101589.28;5009090;28;20104;-78
2023/08/18 02:13:27;;;;;;;13.45;10.88;;;;;;;15.39;100.00;101598.47;5009763;28;20034;-78
2023/08/18 02:15:53;;;;;;;13.93;11.32;;;;;;;15.37;100.00;101595.13;5010830;28;20080;-78
2023/08/18 02:18:18;;;;;;;14.38;10.93;;;;;;;15.29;100.00;101582.63;5009202;28;20030;-79
2023/08/18 02:20:44;;;;;;;13.43;11.35;;;;;;;15.32;100.00;101593.06;5009957;28;20113;-79
2023/08/18 02:23:09;;;;;;;13.77;11.90;;;;;;;15.30;100.00;101581.56;5012113;28;20045;-78
2023/08/18 02:25:35;;;;;;;13.57;11.98;;;;;;;15.29;100.00;101580.75;5008895;28;20037;-78
2023/08/18 02:28:00;;;;;;;14.90;12.13;;;;;;;15.32;100.00;101576.78;5009438;28;20029;-78
2023/08/18 02:30:26;;;;;;;15.80;12.45;;;;;;;15.33;100.00;101577.63;5009520;28;20209;-78
2023/08/18 02:32:51;;;;;;;15.27;12.43;;;;;;;15.30;100.00;101574.28;5009399;28;20037;-78
2023/08/18 02:35:17;;;;;;;14.25;12.32;;;;;;;15.31;100.00;101570.53;5010988;28;20030;-78
2023/08/18 02:37:42;;;;;;;15.15;13.05;;;;;;;15.25;100.00;101576.78;5011036;28;20022;-78
2023/08/18 02:40:08;;;;;;;16.95;13.20;;;;;;;15.30;100.00;101574.28;5010135;28;20033;-78
2023/08/18 02:42:35;;;;;;;16.35;13.27;;;;;;;15.27;100.00;101580.13;5008662;28;20021;-78
2023/08/18 02:45:00;;;;;;;18.33;13.43;;;;;;;15.28;100.00;101576.38;5006517;28;20065;-78
2023/08/18 02:47:26;;;;;;;17.15;13.60;;;;;;;15.26;100.00;101574.94;5009663;28;20029;-78
2023/08/18 02:49:51;;;;;;;17.33;13.57;;;;;;;15.26;100.00;101578.47;5009943;28;20028;-78
2023/08/18 02:52:17;;;;;;;17.75;14.07;;;;;;;15.25;100.00;101582.22;5012556;28;20161;-78
2023/08/18 02:54:42;;;;;;;17.30;13.57;;;;;;;15.29;100.00;101582.63;5009649;28;20505;-79
2023/08/18 02:57:08;;;;;;;15.05;12.68;;;;;;;15.26;100.00;101578.47;5008484;28;20038;-78
2023/08/18 02:59:33;;;;;;;19.50;14.40;;;;;;;15.27;100.00;101580.13;5010528;28;20080;-78
2023/08/18 03:01:58;;;;;;;19.92;14.95;;;;;;;15.17;100.00;101577.03;5009962;28;20022;-78
2023/08/18 03:04:24;;;;;;;17.85;13.60;;;;;;;15.23;100.00;101575.34;5005622;28;20045;-77
2023/08/18 03:06:49;;;;;;;17.67;13.75;;;;;;;15.21;100.00;101574.72;5013160;28;20053;-78
2023/08/18 03:09:16;;;;;;;17.60;13.93;;;;;;;15.24;100.00;101569.69;5009898;28;20038;-78
2023/08/18 03:11:42;;;;;;;19.33;14.82;;;;;;;15.20;100.00;101568.44;5010306;28;20022;-78
2023/08/18 03:14:07;;;;;;;17.42;13.82;;;;;;;15.20;100.00;101563.00;5011389;28;20045;-78
2023/08/18 03:16:33;;;;;;;20.70;14.85;;;;;;;15.18;100.00;101565.09;5005754;28;20477;-78
2023/08/18 03:18:58;;;;;;;18.50;14.38;;;;;;;15.22;100.00;101562.81;5009465;28;20029;-77
2023/08/18 03:21:24;;;;;;;20.45;14.73;;;;;;;15.23;100.00;101567.19;5009210;28;20597;-77
2023/08/18 03:23:49;;;;;;;20.95;15.50;;;;;;;15.23;100.00;101564.50;5010368;28;20030;-76
2023/08/18 03:26:15;;;;;;;20.75;15.77;;;;;;;15.20;100.00;101563.00;5011037;28;20479;-77
2023/08/18 03:28:40;;;;;;;19.13;15.27;;;;;;;15.20;100.00;101557.59;5009151;28;20049;-77
2023/08/18 03:31:06;;;;;;;23.63;15.98;;;;;;;15.17;100.00;101563.47;5010291;28;20034;-76
2023/08/18 03:33:32;;;;;;;23.45;15.55;;;;;;;15.17;100.00;101558.03;5008083;28;20128;-76
2023/08/18 03:35:58;;;;;;;20.45;16.30;;;;;;;15.19;100.00;101553.22;5010793;28;20022;-76
2023/08/18 03:38:23;;;;;;;23.40;16.17;;;;;;;15.15;100.00;101566.38;5009791;28;20026;-76
2023/08/18 03:40:49;;;;;;;22.15;14.80;;;;;;;15.17;100.00;101568.88;5009584;28;20115;-76
2023/08/18 03:43:15;;;;;;;23.13;15.98;;;;;;;15.20;100.00;101565.72;5009326;28;20025;-77
2023/08/18 03:45:40;;;;;;;22.05;15.57;;;;;;;15.22;100.00;101566.34;5010557;28;20053;-77
2023/08/18 03:48:06;;;;;;;24.92;15.93;;;;;;;15.23;100.00;101559.06;5007180;28;20021;-77
2023/08/18 03:50:31;;;;;;;23.25;15.85;;;;;;;15.23;100.00;101568.03;5009671;28;20378;-77
2023/08/18 03:52:57;;;;;;;26.08;16.30;;;;;;;15.23;100.00;101568.03;5010064;28;20379;-76
2023/08/18 03:55:23;;;;;;;21.20;14.95;;;;;;;15.24;100.00;101572.41;5009078;28;20021;-76
2023/08/18 03:57:48;;;;;;;23.80;16.15;;;;;;;15.23;100.00;101570.72;5010592;28;20025;-76
2023/08/18 04:00:14;;;;;;;23.88;15.60;;;;;;;15.27;100.00;101571.13;5007902;28;20041;-76
2023/08/18 04:02:40;;;;;;;21.33;16.02;;;;;;;15.26;100.00;101572.22;5008825;28;20018;-77
2023/08/18 04:05:06;;;;;;;26.15;15.82;;;;;;;15.27;100.00;101574.69;5008914;28;20470;-76
2023/08/18 04:07:31;;;;;;;25.00;16.50;;;;;;;15.26;100.00;101575.75;5011968;28;20105;-76
2023/08/18 04:09:57;;;;;;;26.40;16.70;;;;;;;15.23;100.00;101578.88;5010372;28;20028;-76
2023/08/18 04:12:23;;;;;;;21.48;15.45;;;;;;;15.25;100.00;101579.50;5009408;28;20026;-76
2023/08/18 04:14:49;;;;;;;24.02;16.38;;;;;;;15.25;100.00;101575.97;5010351;28;20044;-77
2023/08/18 04:17:14;;;;;;;25.25;17.05;;;;;;;15.26;100.00;101580.34;5005609;28;20030;-76
2023/08/18 04:19:40;;;;;;;22.70;15.95;;;;;;;15.25;100.00;101582.22;5006927;28;20022;-77
2023/08/18 04:22:05;;;;;;;22.83;15.77;;;;;;;15.26;100.00;101583.88;5009992;28;20026;-76
2023/08/18 04:24:30;;;;;;;27.80;17.27;;;;;;;15.21;100.00;101574.72;5009452;28;20022;-76
2023/08/18 04:26:59;;;;;;;25.15;16.65;;;;;;;15.21;100.00;101580.97;5007545;28;20127;-76
2023/08/18 04:29:28;;;;;;;28.75;17.63;;;;;;;15.17;100.00;101579.72;5005952;28;20087;-76
2023/08/18 04:31:54;;;;;;;26.63;16.88;;;;;;;15.21;100.00;101574.72;5005795;28;20878;-76
2023/08/18 04:34:19;;;;;;;29.85;18.65;;;;;;;15.15;100.00;101570.97;5013786;28;20112;-77
2023/08/18 04:36:44;;;;;;;29.92;18.80;;;;;;;15.11;100.00;101567.81;5015108;28;20014;-77
2023/08/18 04:39:10;;;;;;;26.65;17.63;;;;;;;15.15;100.00;101568.25;5012906;28;20038;-77
2023/08/18 04:41:41;;;;;;;30.80;17.85;;;;;;;15.14;100.00;101566.59;5012568;28;20374;-76
2023/08/18 04:44:07;;;;;;;29.75;17.80;;;;;;;15.16;100.00;101557.19;5007281;28;20027;-76
2023/08/18 04:46:32;;;;;;;29.88;18.92;;;;;;;15.20;100.00;101562.19;5011067;28;20053;-76
2023/08/18 04:48:58;;;;;;;30.02;18.17;;;;;;;15.21;100.00;101569.28;5014605;28;20034;-76
2023/08/18 04:51:27;;;;;;;27.52;17.33;;;;;;;15.24;100.00;101563.44;5021764;28;20029;-76
2023/08/18 04:53:52;;;;;;;32.58;18.92;;;;;;;15.19;100.00;101558.63;5012879;28;20041;-76
2023/08/18 04:56:23;;;;;;;29.65;18.80;;;;;;;15.20;100.00;101557.59;5015157;28;20026;-76
2023/08/18 04:58:48;;;;;;;27.83;17.83;;;;;;;15.24;100.00;101555.31;5014590;28;20069;-77
2023/08/18 05:01:14;;;;;;;26.23;17.50;;;;;;;15.22;100.00;101552.78;5010759;28;20022;-77
2023/08/18 05:03:41;;;;;;;26.88;17.15;;;;;;;15.27;100.00;101555.72;5010697;28;20466;-76
2023/08/18 05:06:12;;;;;;;31.55;17.33;;;;;;;15.28;100.00;101554.66;5009578;28;20029;-77
2023/08/18 05:08:40;;;;;;;29.17;17.90;;;;;;;15.25;100.00;101560.50;5008796;28;20532;-78
2023/08/18 05:11:06;;;;;;;28.20;17.25;;;;;;;15.35;100.00;101559.25;5007911;28;20055;-78
2023/08/18 05:13:32;;;;;;;27.60;18.13;;;;;;;15.41;100.00;101559.25;5009685;28;20036;-78
2023/08/18 05:16:00;;;;;;;27.08;16.92;;;;;;;15.47;100.00;101560.28;5004869;28;20021;-77
2023/08/18 05:18:25;;;;;;;24.83;16.45;;;;;;;15.53;100.00;101555.88;5008948;28;20045;-79
2023/08/18 05:20:51;;;;;;;24.98;16.60;;;;;;;15.59;100.00;101558.56;5010765;28;20034;-79
2023/08/18 05:23:17;;;;;;;26.98;17.00;;;;;;;15.66;100.00;101560.44;5009734;28;20842;-78
2023/08/18 05:25:47;;;;;;;26.50;17.88;;;;;;;15.68;100.00;101558.34;5010856;28;20099;-79
2023/08/18 05:28:13;;;;;;;28.20;17.05;;;;;;;15.67;100.00;101556.66;5000835;28;20026;-78
2023/08/18 05:30:38;;;;;;;26.05;17.08;;;;;;;15.61;100.00;101553.75;5005812;28;20049;-79
2023/08/18 05:33:04;;;;;;;25.80;17.17;;;;;;;15.65;100.00;101562.28;5009126;28;20418;-78
2023/08/18 05:35:31;;;;;;;26.27;17.13;;;;;;;15.70;100.00;101557.06;5002321;28;20495;-78
2023/08/18 05:37:57;;;;;;;27.10;16.42;;;;;;;15.69;100.00;101555.41;4992982;28;20046;-78
2023/08/18 05:40:22;;;;;;;24.83;16.60;;;;;;;15.76;100.00;101560.81;5011046;28;20392;-78
2023/08/18 05:42:48;;;;;;;21.90;15.50;;;;;;;15.82;100.00;101553.69;5011186;28;20083;-79
2023/08/18 05:45:14;;;;;;;23.00;15.63;;;;;;;15.90;100.00;101557.00;5002369;28;20022;-80
2023/08/18 05:47:40;;;;;;;23.48;15.63;;;;;;;15.97;100.00;101551.59;4985163;28;20030;-78
2023/08/18 05:50:07;;;;;;;23.42;16.05;;;;;;;16.02;100.00;101538.16;5011010;28;20030;-79
2023/08/18 05:52:33;;;;;;;25.08;15.80;;;;;;;16.04;100.00;101556.97;4995164;28;20346;-81
2023/08/18 05:54:59;;;;;;;22.73;14.57;;;;;;;16.13;100.00;101536.66;5005503;28;20057;-80
2023/08/18 05:57:24;;;;;;;22.00;14.82;;;;;;;16.03;100.00;101544.44;5006668;28;20029;-79
2023/08/18 05:59:50;;;;;;;24.52;15.90;;;;;;;16.04;100.00;101546.13;5011344;28;20136;-78
2023/08/18 06:02:15;;;;;;;22.98;14.57;;;;;;;16.11;100.00;101538.75;5009782;28;20104;-78
2023/08/18 06:04:40;;;;;;;24.85;15.73;;;;;;;16.17;100.00;101543.31;5008561;28;20349;-79
2023/08/18 06:07:06;;;;;;;24.27;16.92;;;;;;;16.23;100.00;101541.63;5008951;28;20029;-79
2023/08/18 06:09:31;;;;;;;23.65;14.93;;;;;;;16.33;100.00;101538.41;5009259;28;20419;-79
2023/08/18 06:11:57;;;;;;;20.98;14.68;;;;;;;16.39;100.00;101537.56;5011048;28;20377;-78
2023/08/18 06:14:22;;;;;;;19.88;14.55;;;;;;;16.48;100.00;101541.66;5012239;28;20029;-81
2023/08/18 06:16:47;;;;;;;22.38;14.48;;;;;;;16.37;100.00;101540.47;5010630;28;20390;-78
2023/08/18 06:19:13;;;;;;;20.77;14.75;;;;;;;16.51;100.00;101541.22;5009338;28;20042;-79
2023/08/18 06:21:38;;;;;;;19.83;14.00;;;;;;;16.39;100.00;101539.44;5012225;28;20025;-84
2023/08/18 06:24:04;;;;;;;18.45;13.30;;;;;;;16.49;100.00;101542.50;5008109;28;20497;-80
2023/08/18 06:26:30;;;;;;;16.33;13.38;;;;;;;16.60;100.00;101546.38;5007366;28;20459;-78
2023/08/18 06:28:55;;;;;;;18.45;13.20;;;;;;;16.71;100.00;101548.41;5010578;28;20430;-78
2023/08/18 06:31:20;;;;;;;19.17;14.57;;;;;;;16.75;100.00;101546.91;5010807;28;20026;-78
2023/08/18 06:33:46;;;;;;;18.52;14.13;;;;;;;16.90;100.00;101548.47;5009399;28;20018;-79
2023/08/18 06:36:11;;;;;;;18.50;14.65;;;;;;;16.94;100.00;101546.97;5016498;28;20029;-79
2023/08/18 06:38:36;;;;;;;17.73;14.15;;;;;;;16.90;100.00;101543.84;5017136;28;20029;-80
2023/08/18 06:41:02;;;;;;;17.05;13.65;;;;;;;17.04;99.85;101550.03;5011971;28;20025;-78
2023/08/18 06:43:27;;;;;;;15.02;11.85;;;;;;;17.05;99.44;101549.00;5011413;28;20415;-78
2023/08/18 06:45:55;;;;;;;16.25;12.73;;;;;;;17.26;97.68;101546.91;5008966;28;20033;-80
2023/08/18 06:48:21;;;;;;;17.30;12.73;;;;;;;17.17;97.96;101548.25;5009058;28;20029;-80
2023/08/18 06:50:46;;;;;;;15.75;12.60;;;;;;;17.02;98.82;101552.16;5010020;28;20072;-80
2023/08/18 06:53:13;;;;;;;15.10;12.35;;;;;;;17.10;98.91;101557.31;5009177;28;20036;-80
2023/08/18 06:55:38;;;;;;;13.77;11.30;;;;;;;17.36;97.33;101551.84;5008260;28;20398;-81
2023/08/18 06:58:04;;;;;;;12.70;11.18;;;;;;;17.53;95.89;101550.19;5012302;28;20040;-81
2023/08/18 07:00:29;;;;;;;13.73;11.40;;;;;;;17.52;95.24;101544.94;5009715;28;20094;-80
2023/08/18 07:02:54;;;;;;;14.05;11.73;;;;;;;17.45;95.46;101550.47;5008623;28;20022;-81
2023/08/18 07:05:22;;;;;;;14.23;11.32;;;;;;;17.52;95.21;101561.28;5010119;28;20148;-80
2023/08/18 07:07:49;;;;;;;16.98;11.95;;;;;;;17.53;94.19;101561.06;4991379;28;20482;-79
2023/08/18 07:10:14;;;;;;;14.52;10.85;;;;;;;17.66;94.21;101568.25;5009189;28;20030;-80
2023/08/18 07:12:40;;;;;;;13.85;11.52;;;;;;;17.59;94.03;101556.59;5009137;28;20037;-80
2023/08/18 07:15:05;;;;;;;14.73;12.07;;;;;;;17.52;94.26;101550.41;5009995;28;20028;-81
2023/08/18 07:17:31;;;;;;;13.27;10.63;;;;;;;17.55;94.72;101552.66;5024244;22;20445;-81
2023/08/18 07:19:56;;;;;;;12.05;10.82;;;;;;;17.73;93.65;101547.22;5010318;28;20255;-79
2023/08/18 07:22:22;;;;;;;13.75;11.05;;;;;;;17.81;93.13;101545.25;5009183;28;20331;-79
2023/08/18 07:24:48;;;;;;;11.85;10.18;;;;;;;17.86;93.57;101550.84;5009827;28;20080;-79
2023/08/18 07:27:15;;;;;;;12.38;10.02;;;;;;;18.08;92.23;101556.69;5018300;28;20060;-79
2023/08/18 07:29:40;;;;;;;12.95;9.88;;;;;;;18.31;90.63;101541.47;5019621;28;20029;-80
2023/08/18 07:32:06;;;;;;;10.50;9.27;;;;;;;18.29;89.43;101562.66;5010061;28;20034;-81
2023/08/18 07:34:31;;;;;;;11.10;9.60;;;;;;;18.27;89.37;101541.09;5010882;28;20049;-80
2023/08/18 07:36:56;;;;;;;12.50;10.23;;;;;;;18.23;89.13;101542.63;5008245;28;20089;-79
2023/08/18 07:39:22;;;;;;;13.85;11.07;;;;;;;18.09;90.15;101541.97;5009231;28;20037;-80
2023/08/18 07:41:47;;;;;;;12.45;11.15;;;;;;;17.93;90.53;101539.84;5010108;28;20025;-79
2023/08/18 07:44:13;;;;;;;13.18;10.25;;;;;;;18.05;89.96;101548.13;5009987;28;20076;-79
2023/08/18 07:46:38;;;;;;;13.48;11.25;;;;;;;17.93;90.86;101539.84;5009565;28;20030;-80
2023/08/18 07:49:04;;;;;;;13.05;11.13;;;;;;;17.80;91.23;101541.69;5007679;28;20049;-80
2023/08/18 07:51:30;;;;;;;14.82;11.68;;;;;;;17.61;92.41;101545.47;5010103;28;20179;-80
2023/08/18 07:53:55;;;;;;;15.25;12.57;;;;;;;17.50;93.27;101547.91;5008426;28;20092;-80
2023/08/18 07:56:21;;;;;;;18.63;13.57;;;;;;;17.50;93.75;101547.06;5008665;28;20085;-80
2023/08/18 07:58:46;;;;;;;17.95;14.10;;;;;;;17.24;94.55;101558.00;5009717;28;20033;-80
2023/08/18 08:01:11;;;;;;;18.77;14.32;;;;;;;17.32;94.90;101567.75;5009153;28;20022;-80
2023/08/18 08:03:37;;;;;;;16.92;13.10;;;;;;;17.35;94.06;101566.50;5008704;28;20022;-80
2023/08/18 08:06:04;;;;;;;14.50;12.48;;;;;;;17.46;94.38;101567.66;5011024;28;20103;-80
2023/08/18 08:08:30;;;;;;;15.85;12.25;;;;;;;17.42;93.95;101568.09;5012053;28;20245;-80
2023/08/18 08:10:56;;;;;;;13.68;11.85;;;;;;;17.26;94.22;101565.97;5012624;28;20038;-80
2023/08/18 08:13:21;;;;;;;17.05;13.63;;;;;;;17.22;94.72;101568.28;5014684;28;20038;-80
2023/08/18 08:15:46;;;;;;;14.82;12.43;;;;;;;17.39;94.04;101573.97;5013119;28;20030;-80
2023/08/18 08:18:15;;;;;;;14.32;11.95;;;;;;;17.57;93.53;101566.88;5010896;28;20038;-80
2023/08/18 08:20:41;;;;;;;13.00;11.35;;;;;;;17.82;92.42;101564.09;5014997;28;20108;-81
2023/08/18 08:23:07;;;;;;;15.73;12.77;;;;;;;17.71;91.95;101559.41;5016982;28;20164;-81
2023/08/18 08:25:37;;;;;;;17.73;13.80;;;;;;;17.55;93.20;101567.13;5012580;28;20037;-81
2023/08/18 08:28:03;;;;;;;16.23;13.13;;;;;;;17.61;93.50;101565.38;5018742;28;20339;-80
2023/08/18 08:30:28;;;;;;;15.80;13.23;;;;;;;17.76;91.92;101561.44;5011367;28;20467;-80
2023/08/18 08:32:54;;;;;;;16.83;13.63;;;;;;;17.96;91.25;101566.63;5012216;28;20471;-80
2023/08/18 08:35:21;;;;;;;17.40;13.50;;;;;;;17.99;90.15;101566.22;5011886;28;20683;-80
2023/08/18 08:37:46;;;;;;;20.25;14.60;;;;;;;17.88;90.69;101570.50;5012162;28;20381;-80
2023/08/18 08:40:19;;;;;;;16.63;13.55;;;;;;;18.24;88.12;101571.53;5011546;28;20104;-80
2023/08/18 08:42:45;;;;;;;11.55;9.77;;;;;;;18.03;88.93;101573.69;5013889;28;20060;-80
2023/08/18 08:45:10;;;;;;;11.00;9.10;;;;;;;18.26;88.45;101572.13;5012125;28;20076;-80
2023/08/18 08:47:39;;;;;;;11.40;10.20;;;;;;;18.31;87.98;101572.28;5012857;28;20026;-79
2023/08/18 08:50:05;;;;;;;11.65;9.88;;;;;;;18.38;87.63;101563.16;5013350;28;20022;-80
2023/08/18 08:52:31;;;;;;;10.75;9.15;;;;;;;18.47;87.15;101569.97;4993821;28;20132;-80
2023/08/18 08:54:58;;;;;;;10.02;8.95;;;;;;;18.51;87.58;101571.16;4993746;28;20022;-80
2023/08/18 08:57:24;;;;;;;11.82;9.90;;;;;;;18.45;86.90;101570.19;5013110;28;20021;-80
2023/08/18 08:59:49;;;;;;;11.23;9.52;;;;;;;18.89;85.40;101563.66;4993303;28;20049;-80
2023/08/18 09:02:15;;;;;;;10.52;9.07;;;;;;;19.09;84.46;101553.25;5012427;28;20390;-80
2023/08/18 09:04:40;;;;;;;11.57;9.25;;;;;;;19.16;83.98;101547.69;5012990;28;20064;-79
2023/08/18 09:07:07;;;;;;;11.55;10.35;;;;;;;19.26;82.42;101546.22;5011240;28;20026;-80
2023/08/18 09:09:33;;;;;;;11.32;10.05;;;;;;;19.46;82.22;101545.88;5011587;28;20057;-78
2023/08/18 09:12:07;;;;;;;11.10;9.65;;;;;;;19.78;80.39;101553.63;5013136;28;20494;-81
2023/08/18 09:14:37;;;;;;;12.13;10.82;;;;;;;19.43;81.78;101544.44;5011080;28;20044;-79
2023/08/18 09:17:02;;;;;;;11.65;10.23;;;;;;;19.72;80.25;101543.66;5010724;28;20473;-79
2023/08/18 09:19:28;;;;;;;11.15;10.02;;;;;;;20.07;79.77;101550.94;5012873;28;20121;-79
2023/08/18 09:21:56;;;;;;;12.50;10.07;;;;;;;20.55;76.90;101552.41;5010520;28;20034;-80
2023/08/18 09:24:21;;;;;;;12.32;10.95;;;;;;;20.66;75.97;101553.38;5011784;28;20138;-79
2023/08/18 09:26:47;;;;;;;10.70;9.60;;;;;;;20.77;76.23;101553.59;5012805;28;20470;-80
2023/08/18 09:29:12;;;;;;;12.70;10.23;;;;;;;20.97;75.45;101553.06;5012653;28;20085;-79
2023/08/18 09:31:38;;;;;;;13.05;10.90;;;;;;;20.29;76.54;101549.19;5013483;28;20045;-80
2023/08/18 09:34:03;;;;;;;12.77;11.32;;;;;;;20.08;78.95;101547.16;5002688;28;20041;-80
2023/08/18 09:36:30;;;;;;;12.15;10.27;;;;;;;20.26;78.51;101537.94;5009102;28;20493;-80
2023/08/18 09:38:57;;;;;;;11.80;10.60;;;;;;;20.02;79.21;101535.28;5007832;28;20049;-80
2023/08/18 09:41:23;;;;;;;12.35;10.90;;;;;;;20.35;77.85;101530.97;5004882;28;20028;-79
2023/08/18 09:43:48;;;;;;;13.32;10.90;;;;;;;20.75;76.48;101534.63;5008236;28;20014;-79
2023/08/18 09:46:15;;;;;;;11.48;10.27;;;;;;;21.26;74.70;101529.16;5009298;28;20481;-79
2023/08/18 09:48:43;;;;;;;11.35;10.10;;;;;;;21.84;71.63;101534.28;5011536;28;20494;-80
2023/08/18 09:51:09;;;;;;;11.65;10.45;;;;;;;22.29;70.78;101528.72;4996774;28;20550;-79
2023/08/18 09:53:34;;;;;;;13.60;10.38;;;;;;;21.81;72.44;101529.31;5017091;28;20335;-79
2023/08/18 09:56:08;;;;;;;11.18;10.02;;;;;;;21.39;74.13;101521.63;5024910;28;20049;-80
2023/08/18 09:58:40;;;;;;;11.38;10.13;;;;;;;21.84;71.93;101523.34;5010633;28;20033;-80
2023/08/18 10:01:06;;;;;;;11.70;10.50;;;;;;;21.89;71.99;101526.09;5009630;28;20124;-80
2023/08/18 10:03:32;;;;;;;12.23;10.90;;;;;;;21.70;72.62;101541.25;5008960;28;20022;-81
2023/08/18 10:05:57;;;;;;;11.30;10.10;;;;;;;21.61;73.15;101541.69;5010076;28;20030;-81
2023/08/18 10:08:23;;;;;;;12.25;10.32;;;;;;;21.79;72.44;101537.81;4984213;28;20416;-81
2023/08/18 10:10:49;;;;;;;13.65;11.30;;;;;;;21.58;73.12;101547.66;5008895;28;20026;-80
2023/08/18 10:13:15;;;;;;;11.75;10.52;;;;;;;21.50;73.42;101545.34;5009227;28;20524;-80
2023/08/18 10:15:40;;;;;;;12.45;10.52;;;;;;;21.92;72.18;101547.53;5008611;28;20046;-81
2023/08/18 10:18:09;;;;;;;12.93;11.63;;;;;;;21.98;72.19;101536.63;5006765;28;20391;-81
2023/08/18 10:20:35;;;;;;;11.77;10.57;;;;;;;22.21;71.30;101538.25;4991676;28;20033;-81
2023/08/18 10:23:01;;;;;;;11.88;10.68;;;;;;;22.10;71.41;101531.81;5008765;28;20057;-81
2023/08/18 10:25:29;;;;;;;12.23;10.93;;;;;;;22.18;71.94;101539.59;5007376;28;20053;-81
2023/08/18 10:27:54;;;;;;;11.48;10.18;;;;;;;22.46;70.87;101540.44;4992808;28;20045;-81
2023/08/18 10:30:32;;;;;;;14.43;12.40;;;;;;;21.89;71.59;101528.03;5009252;28;20378;-81
2023/08/18 10:33:03;;;;;;;14.20;10.88;;;;;;;22.38;70.59;101532.66;5001661;28;20109;-81
2023/08/18 10:35:28;;;;;;;11.52;10.30;;;;;;;22.70;70.25;101529.13;5008936;28;20029;-81
2023/08/18 10:37:54;;;;;;;14.32;11.88;;;;;;;22.46;69.93;101534.94;5008462;28;20045;-81
2023/08/18 10:40:29;;;;;;;10.68;9.43;;;;;;;22.65;70.19;101520.81;5008742;28;20052;-81
2023/08/18 10:43:02;;;;;;;10.73;9.60;;;;;;;23.31;68.08;101516.88;5009263;28;20030;-81
2023/08/18 10:45:28;;;;;;;12.27;10.60;;;;;;;23.52;66.75;101526.06;5007501;28;20296;-81
2023/08/18 10:47:57;;;;;;;11.93;10.70;;;;;;;23.73;66.39;101521.47;5009285;28;20032;-81
2023/08/18 10:50:23;;;;;;;13.10;11.70;;;;;;;23.43;66.73;101517.50;5007662;28;20026;-81
2023/08/18 10:52:51;;;;;;;12.38;11.18;;;;;;;23.25;67.30;101507.78;5007295;28;20030;-81
2023/08/18 10:55:16;;;;;;;11.93;10.52;;;;;;;23.83;66.75;101508.88;5008129;28;20442;-81
2023/08/18 10:57:42;;;;;;;14.13;11.65;;;;;;;23.81;65.87;101508.31;5007837;28;20026;-81
2023/08/18 11:00:11;;;;;;;12.98;11.57;;;;;;;24.23;64.18;101510.06;5007577;28;20059;-81
2023/08/18 11:02:41;;;;;;;12.35;11.15;;;;;;;24.96;61.38;101510.88;5008538;28;20439;-81